Time;durP1;ratioP1;P1;durP2;ratioP2;P2;SDS_P1;SDS_P2;PMS_P1;PMS_P2;Temp;Humidity;BMP_temperature;BMP_pressure;BME280_temperature;BME280_humidity;BME280_pressure;Samples;Min_cycle;Max_cycle;Signal;HPM_P1;HPM_P2
2020/12/20 00:01:18;;;;;;;97.47;32.85;;;;;;;1.11;100.00;102483.81;5032775;28;20068;-81
2020/12/20 00:03:45;;;;;;;88.22;31.85;;;;;;;1.05;100.00;102487.66;5016542;28;20025;-81
2020/12/20 00:06:12;;;;;;;100.43;36.95;;;;;;;1.13;100.00;102495.84;5016549;28;20022;-81
2020/12/20 00:08:37;;;;;;;134.80;48.25;;;;;;;1.10;100.00;102497.84;5017383;28;20025;-81
2020/12/20 00:11:03;;;;;;;178.48;63.35;;;;;;;1.12;100.00;102498.56;5032966;28;20225;-81
2020/12/20 00:13:28;;;;;;;254.82;89.28;;;;;;;1.07;100.00;102498.88;5032828;28;20017;-82
2020/12/20 00:15:54;;;;;;;217.25;71.88;;;;;;;1.13;100.00;102498.47;5016300;28;20021;-81
2020/12/20 00:18:19;;;;;;;109.47;33.22;;;;;;;1.12;100.00;102504.66;5032982;28;20029;-81
2020/12/20 00:20:44;;;;;;;111.15;35.03;;;;;;;1.10;100.00;102506.53;5017327;28;20029;-82
2020/12/20 00:23:10;;;;;;;93.13;27.17;;;;;;;1.09;100.00;102511.84;5012806;28;20390;-81
2020/12/20 00:25:35;;;;;;;218.18;68.65;;;;;;;1.12;100.00;102509.03;4997826;28;20375;-81
2020/12/20 00:28:01;;;;;;;115.47;37.25;;;;;;;1.09;100.00;102509.22;5016017;28;20021;-81
2020/12/20 00:30:26;;;;;;;125.05;39.88;;;;;;;1.02;100.00;102514.03;5032319;28;20092;-81
2020/12/20 00:32:51;;;;;;;123.70;37.72;;;;;;;1.07;100.00;102503.28;5032488;28;20489;-81
2020/12/20 00:35:18;;;;;;;115.68;33.42;;;;;;;1.11;100.00;102504.75;5032275;28;20022;-81
2020/12/20 00:37:43;;;;;;;110.72;31.58;;;;;;;1.00;100.00;102502.84;5017066;28;20022;-81
2020/12/20 00:40:08;;;;;;;135.80;38.78;;;;;;;0.99;100.00;102508.16;5032550;28;20114;-81
2020/12/20 00:42:34;;;;;;;128.02;35.67;;;;;;;1.02;100.00;102500.94;5032071;28;20014;-81
2020/12/20 00:44:59;;;;;;;126.70;36.22;;;;;;;1.05;100.00;102500.75;5031962;28;20022;-82
2020/12/20 00:47:25;;;;;;;116.38;32.30;;;;;;;1.00;100.00;102496.75;5016650;28;20057;-81
2020/12/20 00:49:50;;;;;;;105.28;31.95;;;;;;;0.95;100.00;102504.91;5015398;28;20044;-81
2020/12/20 00:52:16;;;;;;;105.22;31.13;;;;;;;1.06;100.00;102501.56;5016967;28;20088;-82
2020/12/20 00:54:42;;;;;;;105.55;30.88;;;;;;;0.95;100.00;102497.06;5032214;28;20109;-82
2020/12/20 00:57:24;;;;;;;96.88;30.33;;;;;;;0.90;100.00;102491.28;5016382;28;20041;-82
2020/12/20 01:00:01;;;;;;;101.68;29.42;;;;;;;0.89;100.00;102484.38;5017341;28;20026;-82
2020/12/20 01:02:26;;;;;;;109.95;34.83;;;;;;;0.93;100.00;102492.84;5014796;28;20115;-81
2020/12/20 01:04:51;;;;;;;100.43;30.50;;;;;;;0.96;100.00;102490.88;5031975;28;20037;-82
2020/12/20 01:07:17;;;;;;;106.25;27.85;;;;;;;0.96;100.00;102487.44;5031972;28;20352;-81
2020/12/20 01:09:42;;;;;;;108.28;29.30;;;;;;;0.94;100.00;102490.16;5031960;28;20379;-81
2020/12/20 01:12:08;;;;;;;106.15;26.35;;;;;;;1.06;100.00;102488.50;5031498;28;20030;-82
2020/12/20 01:14:33;;;;;;;109.63;27.88;;;;;;;1.09;100.00;102483.91;5015342;28;20017;-81
2020/12/20 01:17:02;;;;;;;100.55;26.48;;;;;;;1.09;100.00;102483.06;5016468;28;20029;-81
2020/12/20 01:19:27;;;;;;;101.82;26.52;;;;;;;1.03;100.00;102484.31;5014972;28;20033;-82
2020/12/20 01:21:53;;;;;;;102.72;29.90;;;;;;;1.08;100.00;102479.59;5031731;28;20026;-82
2020/12/20 01:24:18;;;;;;;110.30;29.67;;;;;;;1.03;100.00;102484.31;5031602;28;20165;-82
2020/12/20 01:26:44;;;;;;;111.63;28.40;;;;;;;1.04;100.00;102482.53;5031339;28;20116;-81
2020/12/20 01:29:10;;;;;;;121.38;33.40;;;;;;;0.99;100.00;102482.81;5016120;28;20037;-81
2020/12/20 01:31:36;;;;;;;124.88;28.80;;;;;;;0.98;100.00;102490.78;5031412;28;20041;-81
2020/12/20 01:34:02;;;;;;;125.70;29.30;;;;;;;0.97;100.00;102486.47;5015856;28;20098;-81
2020/12/20 01:36:29;;;;;;;116.93;29.25;;;;;;;0.98;100.00;102480.31;5015954;28;20022;-81
2020/12/20 01:39:27;;;;;;;114.85;29.67;;;;;;;1.10;100.00;102484.75;5031316;28;20022;-81
2020/12/20 01:41:52;;;;;;;115.57;26.92;;;;;;;1.05;100.00;102485.03;4995354;28;20030;-81
2020/12/20 01:44:24;;;;;;;109.40;28.10;;;;;;;1.13;100.00;102482.75;4995234;28;20031;-81
2020/12/20 01:46:54;;;;;;;115.80;28.40;;;;;;;1.11;100.00;102474.16;5023392;28;20505;-82
2020/12/20 01:49:30;;;;;;;112.72;27.88;;;;;;;1.01;100.00;102477.50;5031221;28;20094;-81
2020/12/20 01:52:33;;;;;;;112.00;28.02;;;;;;;1.11;100.00;102482.03;5015841;28;20109;-81
2020/12/20 01:55:00;;;;;;;;;;;;;;;1.16;100.00;102479.13;5016055;28;20029;-82
2020/12/20 02:00:47;;;;;;;124.30;28.95;;;;;;;1.03;100.00;102476.47;5015199;28;20037;-82
2020/12/20 02:03:30;;;;;;;111.13;27.88;;;;;;;1.10;100.00;102469.06;5030591;28;20030;-81
2020/12/20 02:06:29;;;;;;;124.07;27.70;;;;;;;1.12;100.00;102473.25;5015370;28;20629;-82
2020/12/20 02:08:56;;;;;;;152.98;42.53;;;;;;;1.11;100.00;102468.94;5015438;28;20030;-81
2020/12/20 02:11:40;;;;;;;125.65;30.98;;;;;;;1.09;100.00;102470.84;5013913;28;20034;-82
2020/12/20 02:14:19;;;;;;;141.23;35.25;;;;;;;1.13;100.00;102472.28;5030938;28;20116;-82
2020/12/20 02:16:49;;;;;;;127.95;35.33;;;;;;;1.11;100.00;102466.31;5014894;28;20076;-82
2020/12/20 02:19:21;;;;;;;201.45;56.13;;;;;;;1.10;100.00;102472.50;5015410;28;20519;-82
2020/12/20 02:22:15;;;;;;;156.73;49.65;;;;;;;1.12;100.00;102468.00;5015315;28;20101;-81
2020/12/20 02:24:46;;;;;;;213.55;67.18;;;;;;;1.12;100.00;102470.63;5030431;28;20029;-81
2020/12/20 02:27:13;;;;;;;158.52;44.17;;;;;;;1.16;100.00;102470.44;5030526;28;20112;-81
2020/12/20 02:30:09;;;;;;;133.18;35.70;;;;;;;1.05;100.00;102468.50;5030382;28;20053;-81
2020/12/20 02:32:52;;;;;;;126.32;35.00;;;;;;;0.98;100.00;102468.06;5014790;28;20030;-82
2020/12/20 02:35:30;;;;;;;129.57;37.63;;;;;;;1.07;100.00;102464.03;5013944;28;20026;-82
2020/12/20 02:37:57;;;;;;;117.07;36.47;;;;;;;1.09;100.00;102468.22;5030326;28;20029;-81
2020/12/20 02:40:55;;;;;;;103.55;27.27;;;;;;;1.12;100.00;102461.91;5015041;28;20026;-81
2020/12/20 02:43:37;;;;;;;99.05;28.67;;;;;;;1.10;100.00;102464.66;5018069;28;20037;-82
2020/12/20 02:46:11;;;;;;;102.17;32.90;;;;;;;1.09;100.00;102467.34;5013749;28;20029;-81
2020/12/20 02:48:43;;;;;;;92.38;30.73;;;;;;;1.01;100.00;102462.63;5015169;28;20268;-81
2020/12/20 02:51:09;;;;;;;111.97;35.95;;;;;;;1.11;100.00;102468.09;5029999;28;20125;-81
2020/12/20 02:53:48;;;;;;;98.80;32.45;;;;;;;1.14;100.00;102468.72;5029981;28;20077;-81
2020/12/20 02:56:34;;;;;;;112.85;35.63;;;;;;;1.05;100.00;102471.13;5014561;28;20383;-81
2020/12/20 02:59:00;;;;;;;103.30;32.17;;;;;;;1.10;100.00;102474.28;5029985;28;20029;-81
2020/12/20 03:01:26;;;;;;;93.57;27.83;;;;;;;1.03;100.00;102462.53;5023733;28;20054;-82
2020/12/20 03:03:51;;;;;;;98.93;25.92;;;;;;;1.12;100.00;102462.78;5014255;28;20054;-82
2020/12/20 03:06:17;;;;;;;95.68;28.05;;;;;;;1.14;100.00;102458.25;5029457;28;20037;-81
2020/12/20 03:08:42;;;;;;;90.13;24.45;;;;;;;1.12;100.00;102456.69;5029638;28;20034;-81
2020/12/20 03:11:07;;;;;;;91.07;24.70;;;;;;;1.08;100.00;102460.44;5029717;28;20029;-81
2020/12/20 03:13:33;;;;;;;94.82;25.10;;;;;;;0.90;100.00;102454.66;5013536;28;20032;-82
2020/12/20 03:15:58;;;;;;;91.90;24.02;;;;;;;0.97;100.00;102457.69;5014126;28;20034;-82
2020/12/20 03:18:33;;;;;;;84.50;25.48;;;;;;;1.11;100.00;102462.88;5029698;28;20029;-82
2020/12/20 03:21:02;;;;;;;75.47;21.63;;;;;;;1.07;100.00;102464.03;5012554;28;20040;-81
2020/12/20 03:24:00;;;;;;;78.07;22.75;;;;;;;1.01;100.00;102459.19;5029530;28;20374;-81
2020/12/20 03:26:26;;;;;;;72.90;20.52;;;;;;;1.03;100.00;102465.13;5029216;28;20037;-81
2020/12/20 03:28:51;;;;;;;63.33;21.98;;;;;;;1.05;100.00;102469.34;5013210;28;20044;-81
2020/12/20 03:31:17;;;;;;;71.00;24.98;;;;;;;1.09;100.00;102462.97;5013125;28;20025;-81
2020/12/20 03:33:42;;;;;;;124.57;47.08;;;;;;;1.08;100.00;102456.06;5014081;28;20069;-81
2020/12/20 03:36:08;;;;;;;116.90;42.08;;;;;;;1.05;100.00;102455.41;5013042;28;20030;-81
2020/12/20 03:38:33;;;;;;;112.43;43.13;;;;;;;1.08;100.00;102455.22;5009506;28;20030;-82
2020/12/20 03:40:58;;;;;;;80.93;28.25;;;;;;;1.09;100.00;102464.72;4994239;28;20041;-81
2020/12/20 03:43:24;;;;;;;104.95;42.38;;;;;;;1.06;100.00;102460.56;5021251;28;20040;-81
2020/12/20 03:45:49;;;;;;;95.30;38.50;;;;;;;1.03;100.00;102452.91;5013763;28;20108;-81
2020/12/20 03:48:15;;;;;;;79.75;26.67;;;;;;;0.97;100.00;102461.19;5012920;28;20049;-81
2020/12/20 03:50:41;;;;;;;80.40;28.13;;;;;;;1.05;100.00;102460.66;5012283;28;20092;-81
2020/12/20 03:53:06;;;;;;;94.60;27.63;;;;;;;1.04;100.00;102465.06;5012822;28;20072;-81
2020/12/20 03:55:32;;;;;;;94.28;34.10;;;;;;;1.09;100.00;102467.34;5013776;28;20030;-82
2020/12/20 03:57:58;;;;;;;90.65;27.92;;;;;;;1.11;100.00;102468.94;5013722;28;20026;-81
2020/12/20 04:00:23;;;;;;;74.07;26.15;;;;;;;1.11;100.00;102470.72;5028901;28;20116;-81
2020/12/20 04:02:49;;;;;;;76.95;24.88;;;;;;;1.10;100.00;102469.06;5028753;28;20082;-81
2020/12/20 04:05:15;;;;;;;75.57;27.15;;;;;;;1.06;100.00;102470.16;5012091;28;20034;-82
2020/12/20 04:07:44;;;;;;;98.53;31.48;;;;;;;1.07;100.00;102469.25;5029305;28;20026;-82
2020/12/20 04:10:09;;;;;;;78.03;24.27;;;;;;;1.05;100.00;102471.94;5013089;28;20022;-81
2020/12/20 04:12:35;;;;;;;81.30;24.15;;;;;;;1.05;100.00;102473.75;5028928;28;20037;-82
2020/12/20 04:15:01;;;;;;;82.65;29.65;;;;;;;1.06;100.00;102475.41;5028212;28;20034;-81
2020/12/20 04:17:26;;;;;;;89.30;31.42;;;;;;;1.08;100.00;102471.75;5028495;28;20387;-81
2020/12/20 04:19:51;;;;;;;89.20;34.35;;;;;;;1.02;100.00;102472.16;5012933;28;20040;-82
2020/12/20 04:22:17;;;;;;;117.22;39.65;;;;;;;1.08;100.00;102473.53;5028309;28;20131;-81
2020/12/20 04:24:42;;;;;;;101.43;29.38;;;;;;;1.09;100.00;102476.06;5028286;28;20033;-81
2020/12/20 04:27:07;;;;;;;98.35;30.55;;;;;;;1.07;100.00;102479.72;5012604;28;20037;-81
2020/12/20 04:29:33;;;;;;;84.78;27.35;;;;;;;1.02;100.00;102479.19;5028502;28;20025;-81
2020/12/20 04:32:01;;;;;;;82.97;26.73;;;;;;;0.99;100.00;102476.75;5028242;28;20030;-81
2020/12/20 04:34:27;;;;;;;82.32;26.63;;;;;;;1.11;100.00;102487.25;5031469;28;20045;-81
2020/12/20 04:36:52;;;;;;;67.85;25.00;;;;;;;1.11;100.00;102489.88;5032482;28;20022;-81
2020/12/20 04:39:17;;;;;;;76.45;26.48;;;;;;;1.11;100.00;102486.41;5031956;28;20032;-82
2020/12/20 04:41:43;;;;;;;72.28;23.73;;;;;;;1.09;100.00;102491.78;5016130;28;20045;-81
2020/12/20 04:44:08;;;;;;;75.82;24.20;;;;;;;1.06;100.00;102489.34;5015405;28;20041;-82
2020/12/20 04:46:35;;;;;;;85.45;29.60;;;;;;;1.08;100.00;102491.84;5032088;28;20036;-81
2020/12/20 04:49:02;;;;;;;70.05;20.42;;;;;;;1.10;100.00;102495.22;5015956;28;20080;-81
2020/12/20 04:51:28;;;;;;;73.40;24.20;;;;;;;1.13;100.00;102495.03;5031461;28;20038;-81
2020/12/20 04:53:57;;;;;;;68.68;20.65;;;;;;;1.08;100.00;102495.31;5031579;28;20026;-81
2020/12/20 04:56:22;;;;;;;73.68;24.58;;;;;;;1.09;100.00;102496.13;5031739;28;20037;-81
2020/12/20 04:58:49;;;;;;;65.43;20.17;;;;;;;1.12;100.00;102504.66;5015707;28;20021;-82
2020/12/20 05:01:14;;;;;;;120.30;32.97;;;;;;;1.12;100.00;102496.81;5031985;28;20021;-81
2020/12/20 05:03:40;;;;;;;127.10;36.30;;;;;;;1.10;100.00;102503.06;5031271;28;20042;-82
2020/12/20 05:06:06;;;;;;;189.13;61.00;;;;;;;1.11;100.00;102507.34;5016599;28;20105;-81
2020/12/20 05:08:31;;;;;;;183.93;50.50;;;;;;;1.17;100.00;102501.72;5031472;28;20121;-81
2020/12/20 05:10:57;;;;;;;91.57;27.88;;;;;;;1.16;100.00;102507.06;5031700;28;20037;-81
2020/12/20 05:13:40;;;;;;;79.95;25.65;;;;;;;1.16;100.00;102515.75;5031954;28;20030;-82
2020/12/20 05:16:06;;;;;;;74.22;20.85;;;;;;;1.14;100.00;102510.59;5016352;28;20430;-81
2020/12/20 05:18:31;;;;;;;75.45;23.63;;;;;;;1.17;100.00;102517.44;5015441;28;20053;-81
2020/12/20 05:20:57;;;;;;;71.63;22.20;;;;;;;1.16;100.00;102512.31;5031718;28;20537;-82
2020/12/20 05:23:29;;;;;;;78.88;24.70;;;;;;;1.11;100.00;102520.44;5015180;28;20030;-81
2020/12/20 05:26:07;;;;;;;101.28;31.60;;;;;;;1.17;100.00;102522.66;5016253;28;20025;-81
2020/12/20 05:28:32;;;;;;;90.63;27.95;;;;;;;1.19;100.00;102517.34;5016255;28;20058;-82
2020/12/20 05:31:09;;;;;;;83.78;29.15;;;;;;;1.05;100.00;102526.91;5015868;28;20423;-81
2020/12/20 05:33:35;;;;;;;88.47;26.45;;;;;;;0.93;100.00;102519.03;5016010;28;20056;-82
2020/12/20 05:36:03;;;;;;;79.60;26.17;;;;;;;0.93;100.00;102525.09;5031314;28;20069;-81
2020/12/20 05:38:28;;;;;;;86.82;26.92;;;;;;;1.02;100.00;102528.91;5031229;28;20041;-81
2020/12/20 05:40:54;;;;;;;111.88;34.17;;;;;;;0.95;100.00;102525.00;5031437;28;20026;-82
2020/12/20 05:43:27;;;;;;;122.03;35.03;;;;;;;1.08;100.00;102531.13;5031624;28;20029;-81
2020/12/20 05:45:54;;;;;;;121.70;33.95;;;;;;;1.11;100.00;102528.28;5014937;28;20454;-81
2020/12/20 05:48:23;;;;;;;109.80;31.00;;;;;;;1.09;100.00;102530.16;5015806;28;20030;-81
2020/12/20 05:50:55;;;;;;;105.13;31.23;;;;;;;1.03;100.00;102536.66;5031142;28;20030;-82
2020/12/20 05:53:29;;;;;;;99.38;29.35;;;;;;;1.11;100.00;102542.22;5030885;28;20406;-81
2020/12/20 05:55:59;;;;;;;91.60;29.50;;;;;;;1.09;100.00;102538.00;5014634;28;20033;-82
2020/12/20 05:58:32;;;;;;;101.80;28.95;;;;;;;1.13;100.00;102540.34;5031019;28;20496;-81
2020/12/20 06:00:58;;;;;;;106.00;36.78;;;;;;;1.13;100.00;102544.75;5015685;28;20429;-81
2020/12/20 06:03:24;;;;;;;108.85;37.30;;;;;;;1.05;100.00;102542.63;5030788;28;20144;-81
2020/12/20 06:05:50;;;;;;;92.30;32.85;;;;;;;1.02;100.00;102552.44;5014243;28;20041;-81
2020/12/20 06:08:19;;;;;;;107.60;38.95;;;;;;;1.17;100.00;102548.00;5014946;28;20038;-81
2020/12/20 06:10:47;;;;;;;116.95;40.65;;;;;;;1.14;100.00;102547.25;5030881;28;20029;-81
2020/12/20 06:13:17;;;;;;;94.82;33.83;;;;;;;1.17;100.00;102548.84;5030567;28;20383;-81
2020/12/20 06:15:43;;;;;;;110.65;31.60;;;;;;;1.18;100.00;102554.91;5014568;28;20057;-82
2020/12/20 06:18:11;;;;;;;111.88;36.25;;;;;;;1.15;100.00;102555.97;5030576;28;20060;-81
2020/12/20 06:20:47;;;;;;;124.35;36.55;;;;;;;1.26;100.00;102555.25;5015682;28;20029;-81
2020/12/20 06:23:16;;;;;;;109.28;32.90;;;;;;;1.23;100.00;102556.28;5014742;28;20474;-80
2020/12/20 06:25:44;;;;;;;75.63;22.98;;;;;;;1.26;100.00;102557.88;5015026;28;20112;-81
2020/12/20 06:28:14;;;;;;;95.97;27.05;;;;;;;1.25;100.00;102558.81;5015168;28;20060;-82
2020/12/20 06:30:40;;;;;;;84.88;27.80;;;;;;;1.26;100.00;102557.88;5014293;28;20030;-82
2020/12/20 06:33:10;;;;;;;81.35;27.77;;;;;;;1.27;100.00;102559.53;5030116;28;20044;-81
2020/12/20 06:35:35;;;;;;;115.72;40.55;;;;;;;1.28;100.00;102561.25;5030365;28;20498;-81
2020/12/20 06:38:01;;;;;;;141.18;43.45;;;;;;;1.33;100.00;102559.13;5014445;28;20030;-82
2020/12/20 06:40:29;;;;;;;105.00;34.53;;;;;;;1.31;100.00;102571.50;5013735;28;20033;-81
2020/12/20 06:42:57;;;;;;;86.10;26.17;;;;;;;1.33;100.00;102561.75;5015152;28;20030;-81
2020/12/20 06:45:23;;;;;;;141.90;47.67;;;;;;;1.31;100.00;102574.13;5030344;28;20022;-80
2020/12/20 06:47:51;;;;;;;143.40;50.17;;;;;;;1.30;100.00;102570.69;5014765;28;20037;-81
2020/12/20 06:50:52;;;;;;;112.82;40.00;;;;;;;1.38;100.00;102575.41;5014740;28;20033;-82
2020/12/20 06:53:18;;;;;;;80.07;27.83;;;;;;;1.35;100.00;102576.44;4973796;28;20132;-82
2020/12/20 06:55:45;;;;;;;72.72;24.00;;;;;;;1.36;100.00;102570.28;5018197;28;20033;-81
2020/12/20 06:58:17;;;;;;;86.60;29.90;;;;;;;1.35;100.00;102567.75;5014390;28;20451;-82
2020/12/20 07:00:49;;;;;;;80.57;26.10;;;;;;;1.35;100.00;102570.38;5014601;28;20022;-82
2020/12/20 07:03:23;;;;;;;85.47;31.48;;;;;;;1.37;100.00;102577.19;5029990;28;20038;-82
2020/12/20 07:06:11;;;;;;;92.43;33.90;;;;;;;1.39;100.00;102574.44;4659803;28;10000210;-81
2020/12/20 07:08:37;;;;;;;94.25;33.33;;;;;;;1.39;100.00;102571.81;5002096;28;20042;-82
2020/12/20 07:11:17;;;;;;;102.55;33.55;;;;;;;1.46;100.00;102582.75;5007106;28;20030;-82
2020/12/20 07:13:44;;;;;;;96.70;34.63;;;;;;;1.52;100.00;102584.97;5018764;28;20038;-82
2020/12/20 07:16:29;;;;;;;89.80;29.95;;;;;;;1.45;100.00;102587.13;5005881;28;20351;-82
2020/12/20 07:18:57;;;;;;;79.10;27.23;;;;;;;1.50;100.00;102592.09;4996768;28;20411;-81
2020/12/20 07:21:22;;;;;;;74.30;27.17;;;;;;;1.50;100.00;102587.69;5012359;28;20053;-82
2020/12/20 07:23:52;;;;;;;79.65;28.58;;;;;;;1.50;100.00;102584.22;5003788;28;20057;-81
2020/12/20 07:26:20;;;;;;;74.03;27.48;;;;;;;1.55;100.00;102579.53;5022876;28;20117;-83
2020/12/20 07:28:46;;;;;;;84.75;31.02;;;;;;;1.54;100.00;102586.56;5004807;28;20033;-82
2020/12/20 07:31:13;;;;;;;85.18;30.45;;;;;;;1.52;100.00;102593.66;5020839;28;20513;-83
2020/12/20 07:33:39;;;;;;;75.82;26.88;;;;;;;1.48;100.00;102600.03;5004624;28;20060;-82
2020/12/20 07:36:05;;;;;;;79.38;29.00;;;;;;;1.59;100.00;102588.84;5003950;28;20017;-83
2020/12/20 07:38:30;;;;;;;71.55;26.35;;;;;;;1.66;100.00;102582.25;5006706;28;20038;-82
2020/12/20 07:40:56;;;;;;;62.40;24.80;;;;;;;1.65;100.00;102582.38;5019217;28;20033;-81
2020/12/20 07:43:21;;;;;;;64.50;19.90;;;;;;;1.65;100.00;102587.63;5023382;28;20356;-83
2020/12/20 07:46:02;;;;;;;66.80;23.00;;;;;;;1.66;100.00;102589.28;5018716;28;20037;-83
2020/12/20 07:48:35;;;;;;;59.47;22.25;;;;;;;1.67;100.00;102589.19;5014837;28;20753;-82
2020/12/20 07:51:21;;;;;;;61.95;25.00;;;;;;;1.75;100.00;102594.75;5006268;28;20029;-83
2020/12/20 07:54:13;;;;;;;178.35;71.57;;;;;;;1.74;100.00;102589.63;5020695;28;20529;-82
2020/12/20 07:56:47;;;;;;;226.95;89.13;;;;;;;1.77;100.00;102597.28;5007707;28;20052;-83
2020/12/20 07:59:20;;;;;;;101.78;37.55;;;;;;;1.71;100.00;102593.28;5008272;28;20029;-82
2020/12/20 08:01:47;;;;;;;84.88;36.10;;;;;;;1.77;100.00;102602.53;5002874;28;20076;-83
2020/12/20 08:04:18;;;;;;;202.43;84.22;;;;;;;1.79;100.00;102601.47;5003764;28;20022;-83
2020/12/20 08:06:48;;;;;;;78.88;30.60;;;;;;;1.78;100.00;102601.56;5016862;28;20398;-83
2020/12/20 08:09:19;;;;;;;107.25;43.63;;;;;;;1.83;100.00;102605.56;5000971;28;20148;-84
2020/12/20 08:11:45;;;;;;;110.18;48.42;;;;;;;1.91;100.00;102596.38;5020823;28;20029;-84
2020/12/20 08:14:15;;;;;;;124.55;54.65;;;;;;;1.91;100.00;102594.59;5010945;28;20475;-83
2020/12/20 08:16:51;;;;;;;105.18;51.08;;;;;;;1.93;100.00;102599.69;5024687;28;20034;-83
2020/12/20 08:19:18;;;;;;;126.47;57.58;;;;;;;2.00;100.00;102603.59;5003026;28;20077;-83
2020/12/20 08:22:05;;;;;;;114.97;60.42;;;;;;;1.96;100.00;102599.50;5021077;28;20057;-82
2020/12/20 08:24:37;;;;;;;145.40;78.45;;;;;;;1.94;100.00;102602.25;5009169;28;20029;-83
2020/12/20 08:27:23;;;;;;;113.60;55.08;;;;;;;1.97;100.00;102603.81;5001638;28;20744;-83
2020/12/20 08:29:51;;;;;;;126.38;45.03;;;;;;;2.07;100.00;102607.47;5010507;28;20367;-83
2020/12/20 08:32:19;;;;;;;276.88;107.30;;;;;;;2.09;100.00;102609.97;5024355;28;20034;-83
2020/12/20 08:34:45;;;;;;;158.00;64.70;;;;;;;2.07;100.00;102607.47;5010358;28;20503;-83
2020/12/20 08:37:17;;;;;;;132.30;73.78;;;;;;;2.04;100.00;102605.91;5011545;28;20017;-84
2020/12/20 08:39:42;;;;;;;116.63;58.50;;;;;;;2.06;100.00;102609.28;5008648;28;20026;-83
2020/12/20 08:42:17;;;;;;;145.98;77.00;;;;;;;2.09;100.00;102605.59;5024561;28;20369;-83
2020/12/20 08:44:51;;;;;;;151.07;79.10;;;;;;;2.15;100.00;102601.69;5002738;28;20034;-83
2020/12/20 08:47:19;;;;;;;218.00;120.78;;;;;;;2.19;100.00;102613.69;5010909;28;20026;-83
2020/12/20 08:49:56;;;;;;;144.13;79.10;;;;;;;2.15;100.00;102606.94;5012400;28;20026;-83
2020/12/20 08:52:21;;;;;;;89.68;41.58;;;;;;;2.19;100.00;102598.78;5006538;28;20118;-83
2020/12/20 08:54:50;;;;;;;204.80;122.10;;;;;;;2.25;100.00;102602.75;5006460;28;20108;-83
2020/12/20 08:57:16;;;;;;;227.55;133.25;;;;;;;2.17;100.00;102605.91;5012402;28;20033;-83
2020/12/20 08:59:46;;;;;;;166.63;87.90;;;;;;;2.22;100.00;102603.81;5013736;28;20037;-83
2020/12/20 09:02:22;;;;;;;126.80;61.28;;;;;;;2.20;100.00;102599.63;5011006;28;20045;-83
2020/12/20 09:05:17;;;;;;;173.13;88.05;;;;;;;2.25;100.00;102605.38;5023987;28;20454;-83
2020/12/20 09:07:49;;;;;;;173.35;88.93;;;;;;;2.27;100.00;102599.09;4994466;28;20046;-84
2020/12/20 09:10:20;;;;;;;246.02;139.15;;;;;;;2.29;100.00;102607.69;5006993;28;20029;-82
2020/12/20 09:12:54;;;;;;;211.48;106.75;;;;;;;2.35;100.00;102603.81;5001650;28;20069;-83
2020/12/20 09:15:22;;;;;;;190.93;107.43;;;;;;;2.32;100.00;102609.25;5019623;28;20610;-83
2020/12/20 09:17:52;;;;;;;124.70;62.25;;;;;;;2.29;100.00;102610.31;5022838;28;20072;-83
2020/12/20 09:20:20;;;;;;;230.38;122.20;;;;;;;2.30;100.00;102600.69;5013335;28;20032;-84
2020/12/20 09:22:51;;;;;;;222.88;112.63;;;;;;;2.43;100.00;102608.53;5024298;28;20048;-83
2020/12/20 09:25:31;;;;;;;67.60;23.50;;;;;;;2.38;100.00;102605.38;5011592;28;20057;-82
2020/12/20 09:27:59;;;;;;;62.47;22.45;;;;;;;2.36;100.00;102602.00;5025576;28;20048;-84
2020/12/20 09:30:45;;;;;;;100.15;48.80;;;;;;;2.41;100.00;102603.38;5015309;28;20116;-82
2020/12/20 09:33:20;;;;;;;122.63;57.58;;;;;;;2.47;100.00;102600.31;5009270;28;20084;-83
2020/12/20 09:35:51;;;;;;;128.20;62.28;;;;;;;2.43;100.00;102612.00;5023364;28;20586;-82
2020/12/20 09:38:16;;;;;;;71.50;30.20;;;;;;;2.47;100.00;102605.56;5008780;28;20029;-82
2020/12/20 09:40:42;;;;;;;59.15;21.77;;;;;;;2.60;100.00;102607.34;5024740;28;20032;-82
2020/12/20 09:43:07;;;;;;;58.20;21.42;;;;;;;2.59;100.00;102595.19;5008854;28;20018;-83
2020/12/20 09:45:33;;;;;;;58.22;21.75;;;;;;;2.62;100.00;102601.03;5010092;28;20454;-83
2020/12/20 09:47:58;;;;;;;52.50;18.85;;;;;;;2.48;100.00;102596.78;5023559;28;20125;-82
2020/12/20 09:50:23;;;;;;;56.28;21.58;;;;;;;2.63;100.00;102597.50;5018543;28;20033;-83
2020/12/20 09:52:49;;;;;;;56.35;21.17;;;;;;;2.64;100.00;102603.56;5007634;28;20653;-83
2020/12/20 09:55:14;;;;;;;57.65;20.58;;;;;;;2.76;100.00;102600.06;5008901;28;20044;-82
2020/12/20 09:57:39;;;;;;;57.83;23.25;;;;;;;2.70;100.00;102598.72;5021169;28;20459;-83
2020/12/20 10:00:05;;;;;;;49.20;22.00;;;;;;;2.80;100.00;102598.06;5006353;28;20100;-82
2020/12/20 10:02:30;;;;;;;54.03;20.65;;;;;;;2.83;100.00;102590.81;5024629;28;20497;-83
2020/12/20 10:04:56;;;;;;;143.27;90.57;;;;;;;2.67;100.00;102583.19;5020218;28;20080;-83
2020/12/20 10:07:21;;;;;;;90.97;46.00;;;;;;;2.83;100.00;102574.22;5009109;28;20080;-82
2020/12/20 10:09:46;;;;;;;61.00;23.15;;;;;;;2.86;100.00;102579.25;5003542;28;20467;-82
2020/12/20 10:12:15;;;;;;;51.08;19.73;;;;;;;2.85;100.00;102580.22;5027593;28;20092;-83
2020/12/20 10:14:40;;;;;;;49.58;18.92;;;;;;;3.11;100.00;102578.31;5028273;28;20025;-78
2020/12/20 10:17:07;;;;;;;64.65;29.10;;;;;;;2.85;100.00;102575.81;5007320;28;20022;-78
2020/12/20 10:19:32;;;;;;;56.85;24.30;;;;;;;2.93;100.00;102567.34;5011153;28;20026;-80
2020/12/20 10:21:58;;;;;;;51.70;22.55;;;;;;;3.00;100.00;102571.25;5026485;28;20025;-80
2020/12/20 10:24:23;;;;;;;59.35;30.67;;;;;;;3.03;100.00;102578.06;5014514;28;20108;-80
2020/12/20 10:26:49;;;;;;;55.58;27.95;;;;;;;2.99;100.00;102577.41;5007890;28;20030;-80
2020/12/20 10:29:17;;;;;;;88.40;41.55;;;;;;;3.13;100.00;102568.56;5012075;28;20021;-81
2020/12/20 10:31:43;;;;;;;101.32;50.72;;;;;;;3.21;100.00;102564.41;5005364;28;20033;-79
2020/12/20 10:34:08;;;;;;;66.53;29.35;;;;;;;3.05;100.00;102558.59;5002961;28;20034;-78
2020/12/20 10:36:35;;;;;;;50.72;20.02;;;;;;;2.98;100.00;102560.84;5018041;28;20034;-80
2020/12/20 10:39:01;;;;;;;77.15;40.30;;;;;;;3.07;100.00;102563.75;5001014;28;20131;-79
2020/12/20 10:41:33;;;;;;;46.38;19.95;;;;;;;3.12;100.00;102559.84;5009013;28;20114;-80
2020/12/20 10:43:58;;;;;;;61.00;26.67;;;;;;;3.18;100.00;102561.19;5013886;28;20018;-78
2020/12/20 10:46:24;;;;;;;75.47;35.63;;;;;;;3.24;100.00;102555.47;5014482;28;20474;-80
2020/12/20 10:48:49;;;;;;;53.67;22.00;;;;;;;3.28;100.00;102556.09;5017202;28;20030;-79
2020/12/20 10:51:19;;;;;;;47.45;18.25;;;;;;;3.34;100.00;102553.84;5023787;28;20417;-80
2020/12/20 10:53:45;;;;;;;102.60;49.90;;;;;;;3.33;100.00;102553.94;5023614;28;20061;-78
2020/12/20 10:56:10;;;;;;;49.78;18.27;;;;;;;3.20;100.00;102548.75;4999558;28;20097;-79
2020/12/20 10:58:36;;;;;;;47.22;18.48;;;;;;;3.11;100.00;102544.19;5000239;28;20033;-79
2020/12/20 11:01:01;;;;;;;48.92;16.50;;;;;;;3.03;100.00;102538.69;5008965;28;20499;-80
2020/12/20 11:03:27;;;;;;;45.45;17.15;;;;;;;3.02;100.00;102542.22;5004344;28;20053;-81
2020/12/20 11:05:52;;;;;;;59.58;24.98;;;;;;;3.02;100.00;102547.47;5008925;28;20029;-79
2020/12/20 11:08:18;;;;;;;85.55;41.97;;;;;;;3.12;100.00;102541.47;5019418;28;20025;-79
2020/12/20 11:10:44;;;;;;;79.50;37.58;;;;;;;3.15;100.00;102541.22;5008738;28;20080;-78
2020/12/20 11:13:09;;;;;;;46.65;19.17;;;;;;;3.07;100.00;102543.56;5002681;28;20061;-81
2020/12/20 11:15:34;;;;;;;57.72;25.63;;;;;;;3.05;100.00;102540.22;5010588;28;20037;-79
2020/12/20 11:18:00;;;;;;;60.60;28.45;;;;;;;3.08;100.00;102539.16;5021319;28;20129;-80